sensor_id;sensor_type;location;lat;lon;timestamp;pressure;altitude;pressure_sealevel;temperature;humidity
72262;BME280;60173;52.112;8.648;2024-02-26T00:00:16;99168.28;;;1.15;97.96
72262;BME280;60173;52.112;8.648;2024-02-26T00:02:42;99172.28;;;0.97;99.84
72262;BME280;60173;52.112;8.648;2024-02-26T00:05:09;99167.50;;;0.99;100.00
72262;BME280;60173;52.112;8.648;2024-02-26T00:07:35;99164.03;;;0.99;100.00
72262;BME280;60173;52.112;8.648;2024-02-26T00:10:01;99174.44;;;1.26;100.00
72262;BME280;60173;52.112;8.648;2024-02-26T00:12:27;99173.91;;;1.29;99.20
72262;BME280;60173;52.112;8.648;2024-02-26T00:14:54;99168.84;;;1.27;98.95
72262;BME280;60173;52.112;8.648;2024-02-26T00:17:20;99176.56;;;1.49;98.16
72262;BME280;60173;52.112;8.648;2024-02-26T00:19:46;99171.47;;;1.58;96.53
72262;BME280;60173;52.112;8.648;2024-02-26T00:22:13;99165.88;;;1.39;95.83
72262;BME280;60173;52.112;8.648;2024-02-26T00:24:40;99166.66;;;1.24;96.47
72262;BME280;60173;52.112;8.648;2024-02-26T00:27:06;99170.69;;;1.11;96.87
72262;BME280;60173;52.112;8.648;2024-02-26T00:29:32;99173.09;;;1.08;97.15
72262;BME280;60173;52.112;8.648;2024-02-26T00:31:58;99166.16;;;0.97;97.50
72262;BME280;60173;52.112;8.648;2024-02-26T00:34:25;99163.97;;;0.73;97.93
72262;BME280;60173;52.112;8.648;2024-02-26T00:36:51;99169.00;;;0.54;99.19
72262;BME280;60173;52.112;8.648;2024-02-26T00:39:17;99166.09;;;0.56;100.00
72262;BME280;60173;52.112;8.648;2024-02-26T00:41:44;99168.50;;;0.67;100.00
72262;BME280;60173;52.112;8.648;2024-02-26T00:44:10;99168.00;;;0.76;100.00
72262;BME280;60173;52.112;8.648;2024-02-26T00:46:37;99172.53;;;0.80;99.90
72262;BME280;60173;52.112;8.648;2024-02-26T00:49:03;99165.03;;;0.72;99.61
72262;BME280;60173;52.112;8.648;2024-02-26T00:51:30;99170.41;;;0.82;100.00
72262;BME280;60173;52.112;8.648;2024-02-26T00:53:56;99168.81;;;0.97;99.32
72262;BME280;60173;52.112;8.648;2024-02-26T00:56:23;99162.94;;;0.95;98.71
72262;BME280;60173;52.112;8.648;2024-02-26T00:58:49;99169.06;;;0.95;98.65
72262;BME280;60173;52.112;8.648;2024-02-26T01:01:15;99157.56;;;0.89;98.45
72262;BME280;60173;52.112;8.648;2024-02-26T01:03:41;99163.72;;;0.85;98.58
72262;BME280;60173;52.112;8.648;2024-02-26T01:06:08;99163.97;;;0.83;99.19
72262;BME280;60173;52.112;8.648;2024-02-26T01:08:34;99161.84;;;0.70;98.88
72262;BME280;60173;52.112;8.648;2024-02-26T01:11:01;99157.81;;;0.67;99.13
72262;BME280;60173;52.112;8.648;2024-02-26T01:13:27;99156.53;;;0.90;99.14
72262;BME280;60173;52.112;8.648;2024-02-26T01:15:53;99155.72;;;1.21;98.47
72262;BME280;60173;52.112;8.648;2024-02-26T01:18:20;99158.13;;;1.22;97.35
72262;BME280;60173;52.112;8.648;2024-02-26T01:20:47;99154.09;;;1.30;96.99
72262;BME280;60173;52.112;8.648;2024-02-26T01:23:14;99154.41;;;1.13;97.39
72262;BME280;60173;52.112;8.648;2024-02-26T01:25:40;99157.03;;;1.18;98.00
72262;BME280;60173;52.112;8.648;2024-02-26T01:28:06;99158.66;;;1.40;97.83
72262;BME280;60173;52.112;8.648;2024-02-26T01:30:32;99150.59;;;1.60;97.25
72262;BME280;60173;52.112;8.648;2024-02-26T01:32:59;99147.63;;;1.77;97.33
72262;BME280;60173;52.112;8.648;2024-02-26T01:35:25;99137.22;;;1.65;96.91
72262;BME280;60173;52.112;8.648;2024-02-26T01:37:52;99128.63;;;1.68;96.11
72262;BME280;60173;52.112;8.648;2024-02-26T01:40:18;99130.19;;;1.85;95.76
72262;BME280;60173;52.112;8.648;2024-02-26T01:42:44;99130.41;;;1.93;94.51
72262;BME280;60173;52.112;8.648;2024-02-26T01:45:14;99137.13;;;1.91;94.40
72262;BME280;60173;52.112;8.648;2024-02-26T01:47:41;99133.94;;;1.84;94.43
72262;BME280;60173;52.112;8.648;2024-02-26T01:50:11;99134.44;;;1.91;94.71
72262;BME280;60173;52.112;8.648;2024-02-26T01:52:38;99133.94;;;1.89;94.20
72262;BME280;60173;52.112;8.648;2024-02-26T01:55:04;99124.88;;;1.79;93.95
72262;BME280;60173;52.112;8.648;2024-02-26T01:57:30;99126.81;;;1.53;93.94
72262;BME280;60173;52.112;8.648;2024-02-26T01:59:57;99123.34;;;1.48;94.90
72262;BME280;60173;52.112;8.648;2024-02-26T02:02:23;99116.34;;;1.57;95.05
72262;BME280;60173;52.112;8.648;2024-02-26T02:04:49;99119.06;;;1.37;97.20
72262;BME280;60173;52.112;8.648;2024-02-26T02:07:16;99110.50;;;1.29;98.25
72262;BME280;60173;52.112;8.648;2024-02-26T02:09:42;99114.22;;;1.49;97.93
72262;BME280;60173;52.112;8.648;2024-02-26T02:12:08;99114.69;;;1.76;96.68
72262;BME280;60173;52.112;8.648;2024-02-26T02:14:35;99114.88;;;2.00;94.72
72262;BME280;60173;52.112;8.648;2024-02-26T02:17:01;99115.66;;;2.11;93.22
72262;BME280;60173;52.112;8.648;2024-02-26T02:19:28;99127.66;;;2.19;92.24
72262;BME280;60173;52.112;8.648;2024-02-26T02:21:54;99133.84;;;2.14;92.27
72262;BME280;60173;52.112;8.648;2024-02-26T02:24:20;99139.13;;;2.30;91.62
72262;BME280;60173;52.112;8.648;2024-02-26T02:26:47;99133.13;;;2.43;90.80
72262;BME280;60173;52.112;8.648;2024-02-26T02:29:13;99139.56;;;2.47;90.54
72262;BME280;60173;52.112;8.648;2024-02-26T02:31:41;99150.31;;;2.37;90.84
72262;BME280;60173;52.112;8.648;2024-02-26T02:34:08;99146.03;;;2.41;91.28
72262;BME280;60173;52.112;8.648;2024-02-26T02:36:35;99143.25;;;2.56;91.39
72262;BME280;60173;52.112;8.648;2024-02-26T02:39:13;99145.28;;;2.75;89.95
72262;BME280;60173;52.112;8.648;2024-02-26T02:41:41;99144.25;;;2.70;89.09
72262;BME280;60173;52.112;8.648;2024-02-26T02:44:08;99148.53;;;2.71;88.89
72262;BME280;60173;52.112;8.648;2024-02-26T02:46:34;99149.66;;;2.60;89.25
72262;BME280;60173;52.112;8.648;2024-02-26T02:49:01;99151.28;;;2.61;89.40
72262;BME280;60173;52.112;8.648;2024-02-26T02:51:27;99152.31;;;2.65;89.16
72262;BME280;60173;52.112;8.648;2024-02-26T02:53:54;99155.28;;;2.64;88.92
72262;BME280;60173;52.112;8.648;2024-02-26T02:56:20;99154.97;;;2.70;88.61
72262;BME280;60173;52.112;8.648;2024-02-26T02:58:46;99150.25;;;2.91;88.23
72262;BME280;60173;52.112;8.648;2024-02-26T03:01:13;99161.50;;;2.99;87.17
72262;BME280;60173;52.112;8.648;2024-02-26T03:03:39;99149.28;;;3.16;85.91
72262;BME280;60173;52.112;8.648;2024-02-26T03:06:05;99152.91;;;3.31;85.17
72262;BME280;60173;52.112;8.648;2024-02-26T03:08:32;99151.19;;;3.45;84.24
72262;BME280;60173;52.112;8.648;2024-02-26T03:10:58;99147.22;;;3.37;84.09
72262;BME280;60173;52.112;8.648;2024-02-26T03:13:25;99150.66;;;3.43;84.76
72262;BME280;60173;52.112;8.648;2024-02-26T03:15:51;99153.13;;;3.39;84.40
72262;BME280;60173;52.112;8.648;2024-02-26T03:18:17;99146.38;;;3.42;84.66
72262;BME280;60173;52.112;8.648;2024-02-26T03:20:44;99149.72;;;3.29;85.74
72262;BME280;60173;52.112;8.648;2024-02-26T03:23:10;99159.88;;;3.32;85.11
72262;BME280;60173;52.112;8.648;2024-02-26T03:25:36;99152.41;;;3.29;86.00
72262;BME280;60173;52.112;8.648;2024-02-26T03:28:03;99151.88;;;3.27;86.13
72262;BME280;60173;52.112;8.648;2024-02-26T03:30:29;99148.13;;;3.28;85.54
72262;BME280;60173;52.112;8.648;2024-02-26T03:32:55;99157.28;;;3.22;86.25
72262;BME280;60173;52.112;8.648;2024-02-26T03:35:22;99162.06;;;3.30;85.50
72262;BME280;60173;52.112;8.648;2024-02-26T03:37:48;99156.94;;;3.33;84.95
72262;BME280;60173;52.112;8.648;2024-02-26T03:40:14;99162.97;;;3.44;85.21
72262;BME280;60173;52.112;8.648;2024-02-26T03:42:41;99166.69;;;3.53;84.96
72262;BME280;60173;52.112;8.648;2024-02-26T03:45:07;99171.78;;;3.50;84.48
72262;BME280;60173;52.112;8.648;2024-02-26T03:47:33;99172.78;;;3.30;85.08
72262;BME280;60173;52.112;8.648;2024-02-26T03:50:00;99164.00;;;3.24;85.09
72262;BME280;60173;52.112;8.648;2024-02-26T03:52:26;99170.22;;;3.14;86.06
72262;BME280;60173;52.112;8.648;2024-02-26T03:54:52;99164.78;;;3.25;86.25
72262;BME280;60173;52.112;8.648;2024-02-26T03:57:19;99166.38;;;3.26;86.19
72262;BME280;60173;52.112;8.648;2024-02-26T03:59:45;99156.69;;;3.30;86.51
72262;BME280;60173;52.112;8.648;2024-02-26T04:02:11;99157.50;;;3.30;86.63
72262;BME280;60173;52.112;8.648;2024-02-26T04:04:38;99162.28;;;3.33;86.00
72262;BME280;60173;52.112;8.648;2024-02-26T04:07:04;99167.28;;;3.45;85.28
72262;BME280;60173;52.112;8.648;2024-02-26T04:09:31;99158.75;;;3.38;85.09
72262;BME280;60173;52.112;8.648;2024-02-26T04:11:57;99160.94;;;3.36;85.46
72262;BME280;60173;52.112;8.648;2024-02-26T04:14:24;99168.66;;;3.43;85.11
72262;BME280;60173;52.112;8.648;2024-02-26T04:16:50;99168.91;;;3.41;85.67
72262;BME280;60173;52.112;8.648;2024-02-26T04:19:16;99167.44;;;3.30;85.52
72262;BME280;60173;52.112;8.648;2024-02-26T04:21:43;99166.00;;;3.37;85.52
72262;BME280;60173;52.112;8.648;2024-02-26T04:24:10;99166.75;;;3.43;84.64
72262;BME280;60173;52.112;8.648;2024-02-26T04:26:36;99173.72;;;3.44;84.70
72262;BME280;60173;52.112;8.648;2024-02-26T04:29:03;99184.47;;;3.44;85.11
72262;BME280;60173;52.112;8.648;2024-02-26T04:31:29;99182.31;;;3.46;84.80
72262;BME280;60173;52.112;8.648;2024-02-26T04:33:55;99182.41;;;3.36;85.73
72262;BME280;60173;52.112;8.648;2024-02-26T04:36:22;99180.00;;;3.34;85.84
72262;BME280;60173;52.112;8.648;2024-02-26T04:38:48;99180.56;;;3.31;86.51
72262;BME280;60173;52.112;8.648;2024-02-26T04:41:14;99178.69;;;3.27;86.40
72262;BME280;60173;52.112;8.648;2024-02-26T04:43:41;99179.22;;;3.29;86.73
72262;BME280;60173;52.112;8.648;2024-02-26T04:46:07;99183.81;;;3.28;86.80
72262;BME280;60173;52.112;8.648;2024-02-26T04:48:34;99187.06;;;3.20;87.16
72262;BME280;60173;52.112;8.648;2024-02-26T04:51:01;99194.34;;;3.20;87.57
72262;BME280;60173;52.112;8.648;2024-02-26T04:53:27;99193.81;;;3.17;87.24
72262;BME280;60173;52.112;8.648;2024-02-26T04:55:53;99200.81;;;3.13;87.60
72262;BME280;60173;52.112;8.648;2024-02-26T04:58:20;99201.38;;;3.10;88.11
72262;BME280;60173;52.112;8.648;2024-02-26T05:00:46;99209.44;;;3.05;87.96
72262;BME280;60173;52.112;8.648;2024-02-26T05:03:12;99209.44;;;3.05;88.19
72262;BME280;60173;52.112;8.648;2024-02-26T05:05:42;99212.94;;;3.06;88.05
72262;BME280;60173;52.112;8.648;2024-02-26T05:08:09;99208.91;;;3.08;88.31
72262;BME280;60173;52.112;8.648;2024-02-26T05:10:37;99215.38;;;3.02;88.39
72262;BME280;60173;52.112;8.648;2024-02-26T05:13:03;99216.41;;;3.06;88.28
72262;BME280;60173;52.112;8.648;2024-02-26T05:15:29;99220.75;;;3.02;88.11
72262;BME280;60173;52.112;8.648;2024-02-26T05:17:56;99218.84;;;3.08;87.93
72262;BME280;60173;52.112;8.648;2024-02-26T05:20:22;99226.00;;;3.17;87.52
72262;BME280;60173;52.112;8.648;2024-02-26T05:22:49;99221.84;;;3.01;88.42
72262;BME280;60173;52.112;8.648;2024-02-26T05:25:15;99223.91;;;3.09;88.76
72262;BME280;60173;52.112;8.648;2024-02-26T05:27:42;99225.06;;;2.98;88.66
72262;BME280;60173;52.112;8.648;2024-02-26T05:30:09;99229.13;;;2.90;89.19
72262;BME280;60173;52.112;8.648;2024-02-26T05:32:36;99232.63;;;2.86;90.08
72262;BME280;60173;52.112;8.648;2024-02-26T05:35:02;99231.59;;;2.82;90.21
72262;BME280;60173;52.112;8.648;2024-02-26T05:37:29;99232.13;;;2.84;90.50
72262;BME280;60173;52.112;8.648;2024-02-26T05:39:55;99227.81;;;2.83;90.57
72262;BME280;60173;52.112;8.648;2024-02-26T05:42:22;99232.63;;;2.86;90.22
72262;BME280;60173;52.112;8.648;2024-02-26T05:44:48;99235.59;;;2.84;90.63
72262;BME280;60173;52.112;8.648;2024-02-26T05:47:14;99235.31;;;2.86;90.23
72262;BME280;60173;52.112;8.648;2024-02-26T05:49:40;99233.94;;;2.93;90.27
72262;BME280;60173;52.112;8.648;2024-02-26T05:52:07;99233.16;;;2.88;90.35
72262;BME280;60173;52.112;8.648;2024-02-26T05:54:33;99237.50;;;2.79;90.77
72262;BME280;60173;52.112;8.648;2024-02-26T05:56:59;99240.72;;;2.81;90.99
72262;BME280;60173;52.112;8.648;2024-02-26T05:59:26;99249.81;;;2.80;90.74
72262;BME280;60173;52.112;8.648;2024-02-26T06:01:52;99244.72;;;2.83;90.51
72262;BME280;60173;52.112;8.648;2024-02-26T06:04:18;99247.38;;;2.88;90.49
72262;BME280;60173;52.112;8.648;2024-02-26T06:06:45;99254.03;;;2.96;90.17
72262;BME280;60173;52.112;8.648;2024-02-26T06:09:11;99263.69;;;2.97;89.94
72262;BME280;60173;52.112;8.648;2024-02-26T06:11:38;99261.56;;;2.94;89.75
72262;BME280;60173;52.112;8.648;2024-02-26T06:14:04;99266.44;;;2.87;90.37
72262;BME280;60173;52.112;8.648;2024-02-26T06:16:30;99265.38;;;2.83;90.84
72262;BME280;60173;52.112;8.648;2024-02-26T06:18:57;99259.75;;;2.79;91.07
72262;BME280;60173;52.112;8.648;2024-02-26T06:21:23;99256.81;;;2.81;91.17
72262;BME280;60173;52.112;8.648;2024-02-26T06:23:49;99264.31;;;2.79;91.15
72262;BME280;60173;52.112;8.648;2024-02-26T06:26:16;99268.59;;;2.80;90.86
72262;BME280;60173;52.112;8.648;2024-02-26T06:28:42;99272.34;;;2.84;90.48
72262;BME280;60173;52.112;8.648;2024-02-26T06:31:08;99270.16;;;2.86;90.77
72262;BME280;60173;52.112;8.648;2024-02-26T06:33:35;99265.91;;;2.85;90.91
72262;BME280;60173;52.112;8.648;2024-02-26T06:36:01;99269.91;;;2.87;90.71
72262;BME280;60173;52.112;8.648;2024-02-26T06:38:27;99269.63;;;2.89;90.56
72262;BME280;60173;52.112;8.648;2024-02-26T06:40:54;99274.97;;;2.89;91.01
72262;BME280;60173;52.112;8.648;2024-02-26T06:43:20;99274.44;;;2.92;90.86
72262;BME280;60173;52.112;8.648;2024-02-26T06:45:46;99274.72;;;2.90;90.51
72262;BME280;60173;52.112;8.648;2024-02-26T06:48:13;99285.91;;;3.03;89.42
72262;BME280;60173;52.112;8.648;2024-02-26T06:50:39;99284.00;;;3.08;89.23
72262;BME280;60173;52.112;8.648;2024-02-26T06:53:05;99291.50;;;3.11;88.65
72262;BME280;60173;52.112;8.648;2024-02-26T06:55:32;99285.03;;;3.12;88.32
72262;BME280;60173;52.112;8.648;2024-02-26T06:57:58;99286.94;;;3.12;88.34
72262;BME280;60173;52.112;8.648;2024-02-26T07:00:24;99289.66;;;3.07;88.78
72262;BME280;60173;52.112;8.648;2024-02-26T07:02:50;99293.38;;;3.11;88.82
72262;BME280;60173;52.112;8.648;2024-02-26T07:05:17;99299.78;;;3.15;88.39
72262;BME280;60173;52.112;8.648;2024-02-26T07:07:43;99302.78;;;3.13;88.08
72262;BME280;60173;52.112;8.648;2024-02-26T07:10:09;99297.63;;;3.17;87.82
72262;BME280;60173;52.112;8.648;2024-02-26T07:12:36;99297.63;;;3.17;87.96
72262;BME280;60173;52.112;8.648;2024-02-26T07:15:02;99296.25;;;3.25;87.70
72262;BME280;60173;52.112;8.648;2024-02-26T07:17:29;99302.13;;;3.27;87.36
72262;BME280;60173;52.112;8.648;2024-02-26T07:19:55;99298.16;;;3.24;88.12
72262;BME280;60173;52.112;8.648;2024-02-26T07:22:22;99301.63;;;3.25;87.38
72262;BME280;60173;52.112;8.648;2024-02-26T07:24:48;99298.31;;;3.38;87.05
72262;BME280;60173;52.112;8.648;2024-02-26T07:27:14;99295.69;;;3.33;87.40
72262;BME280;60173;52.112;8.648;2024-02-26T07:29:41;99295.63;;;3.38;86.59
72262;BME280;60173;52.112;8.648;2024-02-26T07:32:07;99294.03;;;3.37;86.71
72262;BME280;60173;52.112;8.648;2024-02-26T07:34:33;99292.88;;;3.48;86.58
72262;BME280;60173;52.112;8.648;2024-02-26T07:37:00;99289.91;;;3.50;86.44
72262;BME280;60173;52.112;8.648;2024-02-26T07:39:26;99279.47;;;3.48;86.75
72262;BME280;60173;52.112;8.648;2024-02-26T07:41:52;99274.13;;;3.43;86.83
72262;BME280;60173;52.112;8.648;2024-02-26T07:44:20;99271.66;;;3.52;86.98
72262;BME280;60173;52.112;8.648;2024-02-26T07:46:46;99267.38;;;3.51;86.65
72262;BME280;60173;52.112;8.648;2024-02-26T07:49:13;99278.31;;;3.59;87.01
72262;BME280;60173;52.112;8.648;2024-02-26T07:51:39;99272.41;;;3.57;86.64
72262;BME280;60173;52.112;8.648;2024-02-26T07:54:05;99271.88;;;3.55;86.94
72262;BME280;60173;52.112;8.648;2024-02-26T07:56:32;99284.44;;;3.65;86.84
72262;BME280;60173;52.112;8.648;2024-02-26T07:58:58;99281.47;;;3.67;86.90
72262;BME280;60173;52.112;8.648;2024-02-26T08:01:24;99281.47;;;3.67;86.69
72262;BME280;60173;52.112;8.648;2024-02-26T08:03:50;99286.84;;;3.67;86.71
72262;BME280;60173;52.112;8.648;2024-02-26T08:06:17;99291.94;;;3.68;86.88
72262;BME280;60173;52.112;8.648;2024-02-26T08:08:43;99300.81;;;3.63;87.17
72262;BME280;60173;52.112;8.648;2024-02-26T08:11:10;99297.31;;;3.68;87.24
72262;BME280;60173;52.112;8.648;2024-02-26T08:13:36;99310.69;;;3.73;86.88
72262;BME280;60173;52.112;8.648;2024-02-26T08:16:02;99304.50;;;3.73;86.91
72262;BME280;60173;52.112;8.648;2024-02-26T08:18:29;99305.84;;;3.70;87.61
72262;BME280;60173;52.112;8.648;2024-02-26T08:20:55;99314.19;;;3.74;87.11
72262;BME280;60173;52.112;8.648;2024-02-26T08:23:22;99310.44;;;3.70;87.32
72262;BME280;60173;52.112;8.648;2024-02-26T08:25:48;99316.38;;;3.67;87.84
72262;BME280;60173;52.112;8.648;2024-02-26T08:28:14;99309.16;;;3.62;88.04
72262;BME280;60173;52.112;8.648;2024-02-26T08:30:40;99321.50;;;3.63;87.91
72262;BME280;60173;52.112;8.648;2024-02-26T08:33:07;99323.88;;;3.70;87.46
72262;BME280;60173;52.112;8.648;2024-02-26T08:35:33;99330.28;;;3.74;87.55
72262;BME280;60173;52.112;8.648;2024-02-26T08:37:59;99335.06;;;3.82;87.40
72262;BME280;60173;52.112;8.648;2024-02-26T08:40:26;99329.69;;;3.82;87.34
72262;BME280;60173;52.112;8.648;2024-02-26T08:42:52;99333.00;;;3.69;87.68
72262;BME280;60173;52.112;8.648;2024-02-26T08:45:18;99334.88;;;3.73;87.86
72262;BME280;60173;52.112;8.648;2024-02-26T08:47:45;99336.63;;;3.88;86.97
72262;BME280;60173;52.112;8.648;2024-02-26T08:50:11;99331.13;;;4.03;85.99
72262;BME280;60173;52.112;8.648;2024-02-26T08:52:38;99349.31;;;4.12;85.64
72262;BME280;60173;52.112;8.648;2024-02-26T08:55:04;99342.84;;;4.13;84.63
72262;BME280;60173;52.112;8.648;2024-02-26T08:57:31;99339.56;;;4.21;84.82
72262;BME280;60173;52.112;8.648;2024-02-26T08:59:57;99347.41;;;4.17;84.79
72262;BME280;60173;52.112;8.648;2024-02-26T09:02:24;99352.47;;;4.19;85.77
72262;BME280;60173;52.112;8.648;2024-02-26T09:04:50;99356.84;;;4.68;83.61
72262;BME280;60173;52.112;8.648;2024-02-26T09:07:16;99363.81;;;4.93;81.43
72262;BME280;60173;52.112;8.648;2024-02-26T09:09:43;99373.66;;;5.03;81.42
72262;BME280;60173;52.112;8.648;2024-02-26T09:12:09;99376.88;;;5.05;81.09
72262;BME280;60173;52.112;8.648;2024-02-26T09:14:35;99379.34;;;5.44;78.93
72262;BME280;60173;52.112;8.648;2024-02-26T09:17:02;99385.06;;;5.37;79.88
72262;BME280;60173;52.112;8.648;2024-02-26T09:19:28;99391.81;;;5.35;79.61
72262;BME280;60173;52.112;8.648;2024-02-26T09:21:55;99386.38;;;5.78;78.54
72262;BME280;60173;52.112;8.648;2024-02-26T09:24:21;99391.06;;;5.72;78.42
72262;BME280;60173;52.112;8.648;2024-02-26T09:26:47;99389.16;;;5.92;76.88
72262;BME280;60173;52.112;8.648;2024-02-26T09:29:14;99396.09;;;5.41;78.33
72262;BME280;60173;52.112;8.648;2024-02-26T09:31:40;99398.16;;;5.25;78.96
72262;BME280;60173;52.112;8.648;2024-02-26T09:34:06;99393.22;;;5.32;79.77
72262;BME280;60173;52.112;8.648;2024-02-26T09:36:33;99395.06;;;5.13;79.64
72262;BME280;60173;52.112;8.648;2024-02-26T09:39:00;99390.50;;;5.13;80.71
72262;BME280;60173;52.112;8.648;2024-02-26T09:41:27;99391.81;;;5.16;80.52
72262;BME280;60173;52.112;8.648;2024-02-26T09:43:55;99390.19;;;5.15;80.35
72262;BME280;60173;52.112;8.648;2024-02-26T09:46:22;99394.28;;;5.12;79.78
72262;BME280;60173;52.112;8.648;2024-02-26T09:48:48;99392.78;;;5.25;80.26
72262;BME280;60173;52.112;8.648;2024-02-26T09:51:15;99397.50;;;5.33;78.83
72262;BME280;60173;52.112;8.648;2024-02-26T09:53:43;99400.53;;;5.51;78.92
72262;BME280;60173;52.112;8.648;2024-02-26T09:56:09;99408.28;;;5.52;79.08
72262;BME280;60173;52.112;8.648;2024-02-26T09:58:37;99416.69;;;5.51;77.66
72262;BME280;60173;52.112;8.648;2024-02-26T10:01:05;99411.13;;;5.61;77.10
72262;BME280;60173;52.112;8.648;2024-02-26T10:03:36;99412.59;;;5.72;76.56
72262;BME280;60173;52.112;8.648;2024-02-26T10:06:04;99417.69;;;5.93;76.03
72262;BME280;60173;52.112;8.648;2024-02-26T10:08:31;99411.44;;;5.78;76.47
72262;BME280;60173;52.112;8.648;2024-02-26T10:10:58;99407.38;;;5.62;76.94
72262;BME280;60173;52.112;8.648;2024-02-26T10:13:24;99415.81;;;5.74;77.02
72262;BME280;60173;52.112;8.648;2024-02-26T10:15:51;99418.38;;;5.65;76.35
72262;BME280;60173;52.112;8.648;2024-02-26T10:18:17;99423.00;;;5.41;76.58
72262;BME280;60173;52.112;8.648;2024-02-26T10:20:58;99423.56;;;5.38;78.03
72262;BME280;60173;52.112;8.648;2024-02-26T10:23:25;99425.50;;;5.56;77.59
72262;BME280;60173;52.112;8.648;2024-02-26T10:25:55;99418.75;;;5.35;78.08
72262;BME280;60173;52.112;8.648;2024-02-26T10:28:21;99428.72;;;5.34;77.21
72262;BME280;60173;52.112;8.648;2024-02-26T10:30:48;99429.06;;;5.71;76.29
72262;BME280;60173;52.112;8.648;2024-02-26T10:33:14;99444.63;;;5.55;76.72
72262;BME280;60173;52.112;8.648;2024-02-26T10:35:47;99446.81;;;5.72;76.51
72262;BME280;60173;52.112;8.648;2024-02-26T10:38:13;99451.69;;;5.70;77.03
72262;BME280;60173;52.112;8.648;2024-02-26T10:40:40;99442.31;;;5.67;76.80
72262;BME280;60173;52.112;8.648;2024-02-26T10:43:06;99449.75;;;6.13;76.74
72262;BME280;60173;52.112;8.648;2024-02-26T10:45:33;99456.00;;;6.27;75.74
72262;BME280;60173;52.112;8.648;2024-02-26T10:48:03;99454.94;;;6.09;76.64
72262;BME280;60173;52.112;8.648;2024-02-26T10:50:29;99459.91;;;6.02;76.87
72262;BME280;60173;52.112;8.648;2024-02-26T10:52:56;99457.06;;;5.94;77.57
72262;BME280;60173;52.112;8.648;2024-02-26T10:55:23;99471.03;;;5.96;76.51
72262;BME280;60173;52.112;8.648;2024-02-26T10:57:51;99464.94;;;6.09;76.81
72262;BME280;60173;52.112;8.648;2024-02-26T11:00:18;99471.06;;;6.15;75.91
72262;BME280;60173;52.112;8.648;2024-02-26T11:02:45;99470.28;;;6.47;75.39
72262;BME280;60173;52.112;8.648;2024-02-26T11:05:11;99470.75;;;6.16;75.70
72262;BME280;60173;52.112;8.648;2024-02-26T11:07:38;99472.31;;;6.36;75.29
72262;BME280;60173;52.112;8.648;2024-02-26T11:10:04;99477.38;;;6.43;74.75
72262;BME280;60173;52.112;8.648;2024-02-26T11:12:32;99479.50;;;6.27;76.37
72262;BME280;60173;52.112;8.648;2024-02-26T11:14:58;99481.53;;;6.16;76.26
72262;BME280;60173;52.112;8.648;2024-02-26T11:17:25;99474.25;;;5.98;76.98
72262;BME280;60173;52.112;8.648;2024-02-26T11:19:53;99488.91;;;6.10;76.96
72262;BME280;60173;52.112;8.648;2024-02-26T11:22:21;99492.47;;;6.06;77.19
72262;BME280;60173;52.112;8.648;2024-02-26T11:24:50;99494.22;;;5.97;77.11
72262;BME280;60173;52.112;8.648;2024-02-26T11:27:17;99499.13;;;6.14;76.03
72262;BME280;60173;52.112;8.648;2024-02-26T11:29:47;99497.81;;;6.11;76.71
72262;BME280;60173;52.112;8.648;2024-02-26T11:32:14;99488.09;;;6.10;77.13
72262;BME280;60173;52.112;8.648;2024-02-26T11:34:42;99495.44;;;6.04;77.43
72262;BME280;60173;52.112;8.648;2024-02-26T11:37:16;99493.47;;;6.10;77.35
72262;BME280;60173;52.112;8.648;2024-02-26T11:39:43;99502.75;;;6.04;76.56
72262;BME280;60173;52.112;8.648;2024-02-26T11:42:09;99497.19;;;5.95;76.97
72262;BME280;60173;52.112;8.648;2024-02-26T11:44:36;99501.72;;;6.00;76.54
72262;BME280;60173;52.112;8.648;2024-02-26T11:49:37;99505.41;;;6.42;75.53
72262;BME280;60173;52.112;8.648;2024-02-26T11:52:07;99503.94;;;6.82;74.98
72262;BME280;60173;52.112;8.648;2024-02-26T12:00:14;99515.72;;;6.72;74.09
72262;BME280;60173;52.112;8.648;2024-02-26T12:02:41;99512.00;;;6.36;73.97
72262;BME280;60173;52.112;8.648;2024-02-26T12:07:40;99513.81;;;6.02;74.97
72262;BME280;60173;52.112;8.648;2024-02-26T12:12:41;99509.81;;;6.00;75.78
72262;BME280;60173;52.112;8.648;2024-02-26T12:15:09;99517.31;;;6.03;74.90
72262;BME280;60173;52.112;8.648;2024-02-26T12:17:35;99517.38;;;6.36;74.65
72262;BME280;60173;52.112;8.648;2024-02-26T12:20:08;99518.75;;;6.33;73.87
72262;BME280;60173;52.112;8.648;2024-02-26T12:22:35;99524.66;;;6.16;74.68
72262;BME280;60173;52.112;8.648;2024-02-26T12:25:01;99526.22;;;6.22;74.95
72262;BME280;60173;52.112;8.648;2024-02-26T12:27:27;99529.25;;;6.16;73.98
72262;BME280;60173;52.112;8.648;2024-02-26T12:29:54;99530.50;;;6.23;74.40
72262;BME280;60173;52.112;8.648;2024-02-26T12:32:20;99535.75;;;6.15;75.13
72262;BME280;60173;52.112;8.648;2024-02-26T12:34:46;99529.19;;;6.40;74.76
72262;BME280;60173;52.112;8.648;2024-02-26T12:37:13;99532.09;;;6.24;74.11
72262;BME280;60173;52.112;8.648;2024-02-26T12:39:39;99531.44;;;6.32;73.77
72262;BME280;60173;52.112;8.648;2024-02-26T12:42:05;99527.59;;;6.39;74.16
72262;BME280;60173;52.112;8.648;2024-02-26T12:44:32;99526.25;;;6.55;73.85
72262;BME280;60173;52.112;8.648;2024-02-26T12:47:02;99532.19;;;6.57;73.28
72262;BME280;60173;52.112;8.648;2024-02-26T12:49:28;99531.00;;;6.63;73.13
72262;BME280;60173;52.112;8.648;2024-02-26T12:51:54;99545.09;;;6.22;73.34
72262;BME280;60173;52.112;8.648;2024-02-26T12:54:21;99543.09;;;6.47;72.86
72262;BME280;60173;52.112;8.648;2024-02-26T12:56:47;99544.63;;;6.53;73.20
72262;BME280;60173;52.112;8.648;2024-02-26T12:59:13;99545.00;;;6.46;73.62
72262;BME280;60173;52.112;8.648;2024-02-26T13:01:40;99537.38;;;6.34;73.92
72262;BME280;60173;52.112;8.648;2024-02-26T13:04:06;99540.13;;;6.29;74.04
72262;BME280;60173;52.112;8.648;2024-02-26T13:06:33;99545.66;;;6.57;74.29
72262;BME280;60173;52.112;8.648;2024-02-26T13:09:00;99548.94;;;6.54;74.18
72262;BME280;60173;52.112;8.648;2024-02-26T13:11:26;99559.44;;;6.55;73.96
72262;BME280;60173;52.112;8.648;2024-02-26T13:13:53;99567.91;;;6.49;73.49
72262;BME280;60173;52.112;8.648;2024-02-26T13:16:19;99573.50;;;6.71;72.69
72262;BME280;60173;52.112;8.648;2024-02-26T13:18:49;99574.63;;;6.51;72.67